createdAt,value
2019-04-27T00:01:16.733Z,101092.27
2019-04-27T00:02:43.741Z,101086.73
2019-04-27T00:04:06.352Z,101091.38
2019-04-27T00:05:39.650Z,101096.28
2019-04-27T00:06:46.539Z,101091.72
2019-04-27T00:08:00.414Z,101085.13
2019-04-27T00:09:15.968Z,101092.08
2019-04-27T00:10:36.640Z,101089.20
2019-04-27T00:11:49.423Z,101088.48
2019-04-27T00:12:57.338Z,101095.44
2019-04-27T00:14:01.212Z,101093.41
2019-04-27T00:15:07.043Z,101092.84
2019-04-27T00:16:44.521Z,101097.83
2019-04-27T00:18:15.595Z,101090.45
2019-04-27T00:19:31.764Z,101087.70
2019-04-27T00:20:55.395Z,101089.69
2019-04-27T00:22:09.600Z,101079.25
2019-04-27T00:23:17.717Z,101079.90
2019-04-27T00:24:23.541Z,101082.20
2019-04-27T00:25:28.957Z,101082.00
2019-04-27T00:26:34.016Z,101083.48
2019-04-27T00:27:38.936Z,101082.77
2019-04-27T00:28:43.919Z,101080.09
2019-04-27T00:29:49.289Z,101081.58
2019-04-27T00:30:54.214Z,101078.19
2019-04-27T00:31:59.405Z,101073.98
2019-04-27T00:33:05.308Z,101080.29
2019-04-27T00:34:10.776Z,101071.59
2019-04-27T00:35:20.537Z,101070.74
2019-04-27T00:36:32.951Z,101070.89
2019-04-27T00:37:49.375Z,101071.87
2019-04-27T00:38:59.670Z,101066.17
2019-04-27T00:40:09.175Z,101065.11
2019-04-27T00:41:15.550Z,101058.23
2019-04-27T00:42:20.750Z,101061.03
2019-04-27T00:43:25.659Z,101064.70
2019-04-27T00:44:30.630Z,101058.03
2019-04-27T00:45:35.880Z,101055.84
2019-04-27T00:46:41.046Z,101055.00
2019-04-27T00:47:56.820Z,101063.64
2019-04-27T00:48:53.409Z,101057.94
2019-04-27T00:49:58.376Z,101064.25
2019-04-27T00:51:04.309Z,101053.86
2019-04-27T00:52:09.412Z,101052.19
2019-04-27T00:53:14.706Z,101053.16
2019-04-27T00:54:19.931Z,101050.13
2019-04-27T00:55:25.049Z,101053.77
2019-04-27T00:56:47.882Z,101055.62
2019-04-27T00:58:29.785Z,101050.28
2019-04-27T00:59:53.379Z,101049.08
2019-04-27T01:01:12.721Z,101049.23
2019-04-27T01:02:27.785Z,101052.66
2019-04-27T01:03:37.088Z,101043.92
2019-04-27T01:04:42.854Z,101045.74
2019-04-27T01:05:47.928Z,101048.93
2019-04-27T01:06:53.907Z,101040.69
2019-04-27T01:07:58.834Z,101039.35
2019-04-27T01:09:06.216Z,101038.50
2019-04-27T01:10:13.369Z,101038.50
2019-04-27T01:11:18.156Z,101041.17
2019-04-27T01:12:23.735Z,101037.81
2019-04-27T01:13:29.462Z,101032.48
2019-04-27T01:14:34.420Z,101037.45
2019-04-27T01:15:39.345Z,101031.30
2019-04-27T01:16:44.668Z,101031.78
2019-04-27T01:17:50.018Z,101030.45
2019-04-27T01:18:54.923Z,101027.30
2019-04-27T01:20:00.129Z,101022.94
2019-04-27T01:21:05.151Z,101028.75
2019-04-27T01:22:10.284Z,101021.72
2019-04-27T01:23:15.289Z,101021.72
2019-04-27T01:24:20.280Z,101019.05
2019-04-27T01:25:29.276Z,101021.36
2019-04-27T01:26:49.955Z,101019.05
2019-04-27T01:28:20.637Z,101022.69
2019-04-27T01:29:26.789Z,101017.97
2019-04-27T01:30:35.521Z,101021.63
2019-04-27T01:31:40.752Z,101015.20
2019-04-27T01:32:45.672Z,101010.39
2019-04-27T01:33:50.658Z,101009.55
2019-04-27T01:34:55.722Z,101012.22
2019-04-27T01:36:00.897Z,101006.52
2019-04-27T01:37:05.914Z,101008.82
2019-04-27T01:38:10.799Z,101006.43
2019-04-27T01:39:16.628Z,101011.27
2019-04-27T01:40:21.801Z,101011.42
2019-04-27T01:41:26.705Z,101008.40
2019-04-27T01:42:31.680Z,101006.22
2019-04-27T01:43:36.683Z,101005.03
2019-04-27T01:44:41.927Z,101006.00
2019-04-27T01:45:46.843Z,101003.34
2019-04-27T01:46:51.904Z,101002.49
2019-04-27T01:47:57.111Z,101001.64
2019-04-27T01:49:02.319Z,101006.00
2019-04-27T01:50:08.724Z,101006.98
2019-04-27T01:51:13.966Z,101001.64
2019-04-27T01:52:19.495Z,101000.47
2019-04-27T01:53:24.625Z,100998.28
2019-04-27T01:54:29.875Z,100997.44
2019-04-27T01:55:35.082Z,101000.95
2019-04-27T01:56:40.161Z,100998.28
2019-04-27T01:57:45.157Z,100995.47
2019-04-27T01:58:50.423Z,100994.77
2019-04-27T01:59:55.858Z,100994.89
2019-04-27T02:01:28.621Z,100997.22
2019-04-27T02:02:40.007Z,100993.83
2019-04-27T02:04:06.389Z,100992.66
2019-04-27T02:05:23.676Z,100994.11
2019-04-27T02:06:29.573Z,100987.59
2019-04-27T02:07:34.778Z,100993.89
2019-04-27T02:08:40.384Z,100987.72
2019-04-27T02:09:45.352Z,100994.86
2019-04-27T02:10:50.419Z,100991.34
2019-04-27T02:11:55.655Z,100994.02
2019-04-27T02:13:01.900Z,100992.68
2019-04-27T02:14:06.897Z,100996.67
2019-04-27T02:15:12.146Z,100993.53
2019-04-27T02:16:18.775Z,100989.53
2019-04-27T02:17:23.646Z,100986.75
2019-04-27T02:18:35.569Z,100987.59
2019-04-27T02:19:35.328Z,100987.92
2019-04-27T02:20:40.407Z,100989.14
2019-04-27T02:21:45.389Z,100984.17
2019-04-27T02:22:50.809Z,100984.17
2019-04-27T02:23:55.709Z,100987.16
2019-04-27T02:25:00.719Z,100988.86
2019-04-27T02:26:05.669Z,100984.87
2019-04-27T02:27:10.656Z,100987.89
2019-04-27T02:28:29.819Z,100985.23
2019-04-27T02:30:04.577Z,100975.17
2019-04-27T02:31:26.984Z,100985.35
2019-04-27T02:32:42.035Z,100984.66
2019-04-27T02:33:51.031Z,100980.78
2019-04-27T02:35:09.188Z,100982.75
2019-04-27T02:36:15.154Z,100980.08
2019-04-27T02:37:20.391Z,100972.00
2019-04-27T02:38:25.401Z,100975.63
2019-04-27T02:39:30.282Z,100976.27
2019-04-27T02:41:01.472Z,100973.39
2019-04-27T02:42:06.450Z,100973.52
2019-04-27T02:43:13.283Z,100970.63
2019-04-27T02:44:22.752Z,100968.09
2019-04-27T02:45:30.121Z,100973.09
2019-04-27T02:46:34.905Z,100962.43
2019-04-27T02:47:40.827Z,100967.76
2019-04-27T02:48:59.369Z,100962.76
2019-04-27T02:49:52.854Z,100967.76
2019-04-27T02:51:01.475Z,100967.27
2019-04-27T02:52:23.223Z,100961.95
2019-04-27T02:53:45.879Z,100962.91
2019-04-27T02:54:50.879Z,100958.92
2019-04-27T02:55:55.865Z,100955.41
2019-04-27T02:57:00.854Z,100958.06
2019-04-27T02:58:05.748Z,100960.73
2019-04-27T02:59:11.920Z,100953.59
2019-04-27T03:00:20.361Z,100955.77
2019-04-27T03:01:27.106Z,100952.73
2019-04-27T03:02:36.631Z,100953.10
2019-04-27T03:03:41.528Z,100955.77
2019-04-27T03:04:49.578Z,100949.11
2019-04-27T03:05:53.628Z,100944.75
2019-04-27T03:07:00.225Z,100948.38
2019-04-27T03:08:05.411Z,100951.41
2019-04-27T03:09:10.641Z,100948.38
2019-04-27T03:10:15.854Z,100950.71
2019-04-27T03:11:23.402Z,100944.17
2019-04-27T03:12:31.210Z,100941.99
2019-04-27T03:13:44.951Z,100942.63
2019-04-27T03:15:10.216Z,100943.11
2019-04-27T03:16:22.863Z,100941.41
2019-04-27T03:17:39.730Z,100938.91
2019-04-27T03:19:17.788Z,100938.20
2019-04-27T03:20:31.792Z,100935.78
2019-04-27T03:22:13.624Z,100927.25
2019-04-27T03:23:19.949Z,100925.19
2019-04-27T03:24:44.118Z,100928.00
2019-04-27T03:26:06.916Z,100926.30
2019-04-27T03:27:12.800Z,100925.34
2019-04-27T03:28:20.031Z,100919.65
2019-04-27T03:29:24.851Z,100919.50
2019-04-27T03:30:34.791Z,100917.68
2019-04-27T03:31:36.797Z,100917.08
2019-04-27T03:32:43.260Z,100916.08
2019-04-27T03:33:54.967Z,100913.93
2019-04-27T03:34:54.981Z,100910.15
2019-04-27T03:36:02.553Z,100909.66
2019-04-27T03:37:07.105Z,100908.66
2019-04-27T03:38:12.512Z,100918.47
2019-04-27T03:39:19.862Z,100907.81
2019-04-27T03:40:24.471Z,100906.84
2019-04-27T03:41:29.595Z,100908.55
2019-04-27T03:42:37.946Z,100905.88
2019-04-27T03:43:42.831Z,100900.55
2019-04-27T03:44:50.309Z,100902.25
2019-04-27T03:45:54.973Z,100900.55
2019-04-27T03:47:00.067Z,100899.59
2019-04-27T03:48:05.244Z,100897.89
2019-04-27T03:49:27.335Z,100897.89
2019-04-27T03:50:22.411Z,100889.90
2019-04-27T03:51:33.712Z,100890.26
2019-04-27T03:52:49.847Z,100891.44
2019-04-27T03:54:02.184Z,100890.11
2019-04-27T03:55:12.772Z,100889.98
2019-04-27T03:56:23.799Z,100885.99
2019-04-27T03:57:36.236Z,100887.32
2019-04-27T03:58:44.484Z,100887.66
2019-04-27T04:00:00.270Z,100889.34
2019-04-27T04:01:05.861Z,100887.17
2019-04-27T04:02:10.847Z,100889.83
2019-04-27T04:03:16.132Z,100883.66
2019-04-27T04:04:21.299Z,100890.68
2019-04-27T04:05:26.392Z,100885.47
2019-04-27T04:06:31.775Z,100885.63
2019-04-27T04:07:36.838Z,100887.59
2019-04-27T04:08:42.268Z,100883.36
2019-04-27T04:09:50.046Z,100886.17
2019-04-27T04:10:59.699Z,100882.78
2019-04-27T04:12:09.636Z,100878.09
2019-04-27T04:13:33.737Z,100871.92
2019-04-27T04:14:42.487Z,100875.91
2019-04-27T04:16:14.325Z,100868.41
2019-04-27T04:17:20.329Z,100869.62
2019-04-27T04:18:26.032Z,100868.13
2019-04-27T04:19:47.464Z,100861.14
2019-04-27T04:20:40.273Z,100865.34
2019-04-27T04:21:44.418Z,100860.87
2019-04-27T04:22:51.405Z,100867.53
2019-04-27T04:23:56.182Z,100864.23
2019-04-27T04:25:01.285Z,100867.53
2019-04-27T04:26:06.313Z,100862.69
2019-04-27T04:27:11.273Z,100866.80
2019-04-27T04:28:16.298Z,100869.47
2019-04-27T04:29:21.491Z,100868.13
2019-04-27T04:30:26.462Z,100859.81
2019-04-27T04:31:33.202Z,100862.11
2019-04-27T04:32:39.623Z,100866.75
2019-04-27T04:33:44.824Z,100864.90
2019-04-27T04:34:50.343Z,100858.39
2019-04-27T04:35:55.330Z,100864.56
2019-04-27T04:37:00.722Z,100866.75
2019-04-27T04:38:06.056Z,100865.41
2019-04-27T04:39:12.397Z,100863.23
2019-04-27T04:40:22.848Z,100873.41
2019-04-27T04:42:00.632Z,100864.78
2019-04-27T04:43:11.201Z,100867.66
2019-04-27T04:44:50.334Z,100869.55
2019-04-27T04:46:13.239Z,100869.77
2019-04-27T04:47:37.021Z,100869.28
2019-04-27T04:48:42.310Z,100870.83
2019-04-27T04:49:51.170Z,100872.67
2019-04-27T04:50:54.243Z,100872.03
2019-04-27T04:51:59.611Z,100875.06
2019-04-27T04:53:04.684Z,100879.39
2019-04-27T04:54:09.770Z,100879.62
2019-04-27T04:55:14.910Z,100882.14
2019-04-27T04:56:20.035Z,100881.17
2019-04-27T04:57:25.210Z,100875.69
2019-04-27T04:58:30.220Z,100874.59
2019-04-27T04:59:35.187Z,100884.13
2019-04-27T05:00:40.275Z,100881.46
2019-04-27T05:01:45.100Z,100882.64
2019-04-27T05:02:50.019Z,100880.83
2019-04-27T05:03:54.912Z,100885.67
2019-04-27T05:04:59.829Z,100888.21
2019-04-27T05:06:04.815Z,100883.00
2019-04-27T05:07:09.735Z,100887.00
2019-04-27T05:08:14.659Z,100889.03
2019-04-27T05:09:19.592Z,100880.55
2019-04-27T05:10:24.537Z,100888.75
2019-04-27T05:11:29.861Z,100891.41
2019-04-27T05:12:35.073Z,100883.30
2019-04-27T05:13:40.209Z,100881.84
2019-04-27T05:14:45.163Z,100889.56
2019-04-27T05:15:50.374Z,100887.38
2019-04-27T05:16:55.268Z,100882.89
2019-04-27T05:18:00.200Z,100881.28
2019-04-27T05:19:05.459Z,100877.62
2019-04-27T05:20:29.493Z,100877.01
2019-04-27T05:21:35.219Z,100880.00
2019-04-27T05:22:40.132Z,100880.73
2019-04-27T05:23:45.065Z,100877.78
2019-04-27T05:25:00.435Z,100883.80
2019-04-27T05:26:05.410Z,100881.02
2019-04-27T05:27:10.448Z,100880.73
2019-04-27T05:28:15.341Z,100880.25
2019-04-27T05:29:20.380Z,100875.24
2019-04-27T05:30:25.383Z,100878.76
2019-04-27T05:31:30.331Z,100877.91
2019-04-27T05:32:35.579Z,100878.27
2019-04-27T05:33:40.612Z,100884.81
2019-04-27T05:34:45.899Z,100874.48
2019-04-27T05:35:50.832Z,100873.02
2019-04-27T05:36:55.761Z,100877.37
2019-04-27T05:38:07.066Z,100876.53
2019-04-27T05:39:09.657Z,100880.05
2019-04-27T05:40:14.853Z,100874.23
2019-04-27T05:41:19.959Z,100879.07
2019-04-27T05:42:24.924Z,100873.02
2019-04-27T05:43:36.637Z,100872.53
2019-04-27T05:45:05.503Z,100870.35
2019-04-27T05:46:35.744Z,100868.17
2019-04-27T05:47:50.193Z,100871.61
2019-04-27T05:48:53.224Z,100865.58
2019-04-27T05:50:05.148Z,100871.89
2019-04-27T05:51:10.413Z,100864.05
2019-04-27T05:52:30.883Z,100858.97
2019-04-27T05:53:35.824Z,100864.58
2019-04-27T05:54:41.005Z,100862.06
2019-04-27T05:55:45.942Z,100857.34
2019-04-27T05:56:50.953Z,100857.34
2019-04-27T05:57:55.875Z,100867.68
2019-04-27T05:59:01.052Z,100864.66
2019-04-27T06:00:09.040Z,100859.32
2019-04-27T06:01:14.057Z,100859.48
2019-04-27T06:02:20.771Z,100858.27
2019-04-27T06:03:25.810Z,100860.57
2019-04-27T06:04:30.743Z,100860.24
2019-04-27T06:05:35.905Z,100855.03
2019-04-27T06:06:41.088Z,100855.03
2019-04-27T06:07:46.033Z,100848.73
2019-04-27T06:08:50.953Z,100850.27
2019-04-27T06:09:55.987Z,100849.30
2019-04-27T06:11:00.876Z,100851.81
2019-04-27T06:12:05.889Z,100844.02
2019-04-27T06:13:10.862Z,100849.10
2019-04-27T06:14:16.079Z,100849.63
2019-04-27T06:15:21.066Z,100854.36
2019-04-27T06:16:25.962Z,100850.20
2019-04-27T06:17:31.003Z,100849.72
2019-04-27T06:18:36.006Z,100848.05
2019-04-27T06:19:43.774Z,100849.88
2019-04-27T06:20:53.401Z,100846.20
2019-04-27T06:21:54.372Z,100849.23
2019-04-27T06:22:59.270Z,100847.41
2019-04-27T06:24:04.506Z,100848.09
2019-04-27T06:25:11.708Z,100849.67
2019-04-27T06:26:16.291Z,100845.38
2019-04-27T06:27:21.283Z,100839.92
2019-04-27T06:28:26.268Z,100847.31
2019-04-27T06:29:31.266Z,100841.13
2019-04-27T06:30:36.269Z,100848.64
2019-04-27T06:31:41.299Z,100844.48
2019-04-27T06:32:46.208Z,100852.48
2019-04-27T06:33:51.711Z,100844.13
2019-04-27T06:34:58.775Z,100846.11
2019-04-27T06:36:03.878Z,100845.38
2019-04-27T06:37:09.546Z,100851.33
2019-04-27T06:38:14.597Z,100841.80
2019-04-27T06:39:20.563Z,100850.64
2019-04-27T06:40:25.734Z,100844.82
2019-04-27T06:41:31.028Z,100843.25
2019-04-27T06:42:36.026Z,100843.25
2019-04-27T06:43:41.066Z,100847.61
2019-04-27T06:44:46.125Z,100843.25
2019-04-27T06:45:51.374Z,100844.95
2019-04-27T06:46:56.378Z,100843.00
2019-04-27T06:48:01.292Z,100842.00
2019-04-27T06:49:06.286Z,100845.02
2019-04-27T06:51:02.790Z,100839.69
2019-04-27T06:52:02.950Z,100839.08
2019-04-27T06:53:09.114Z,100835.56
2019-04-27T06:54:14.535Z,100835.20
2019-04-27T06:55:19.505Z,100832.54
2019-04-27T06:56:24.537Z,100837.88
2019-04-27T06:57:29.552Z,100836.54
2019-04-27T06:58:35.009Z,100831.08
2019-04-27T06:59:40.092Z,100833.98
2019-04-27T07:00:45.123Z,100837.82
2019-04-27T07:01:50.177Z,100835.16
2019-04-27T07:02:55.545Z,100835.84
2019-04-27T07:04:00.775Z,100836.20
2019-04-27T07:05:06.061Z,100835.36
2019-04-27T07:06:11.399Z,100831.23
2019-04-27T07:07:16.715Z,100835.07
2019-04-27T07:08:21.781Z,100838.45
2019-04-27T07:09:26.809Z,100835.80
2019-04-27T07:10:32.034Z,100831.30
2019-04-27T07:11:39.400Z,100830.95
2019-04-27T07:12:44.642Z,100831.43
2019-04-27T07:13:49.871Z,100834.59
2019-04-27T07:14:55.303Z,100841.25
2019-04-27T07:16:00.219Z,100842.26
2019-04-27T07:17:05.299Z,100843.59
2019-04-27T07:18:10.200Z,100830.74
2019-04-27T07:19:15.255Z,100838.10
2019-04-27T07:20:20.274Z,100836.28
2019-04-27T07:21:25.301Z,100835.14
2019-04-27T07:22:30.327Z,100845.33
2019-04-27T07:23:38.900Z,100841.69
2019-04-27T07:24:44.168Z,100836.68
2019-04-27T07:25:49.153Z,100836.68
2019-04-27T07:26:54.299Z,100831.70
2019-04-27T07:27:59.343Z,100829.40
2019-04-27T07:29:04.651Z,100833.04
2019-04-27T07:30:12.016Z,100841.53
2019-04-27T07:31:17.329Z,100835.14
2019-04-27T07:32:22.272Z,100837.97
2019-04-27T07:33:27.240Z,100835.92
2019-04-27T07:34:32.263Z,100837.25
2019-04-27T07:35:39.177Z,100832.56
2019-04-27T07:36:43.963Z,100834.59
2019-04-27T07:37:49.331Z,100835.92
2019-04-27T07:38:54.400Z,100828.97
2019-04-27T07:39:59.415Z,100832.48
2019-04-27T07:41:04.314Z,100832.68
2019-04-27T07:42:09.384Z,100830.73
2019-04-27T07:43:29.289Z,100837.47
2019-04-27T07:44:44.594Z,100827.85
2019-04-27T07:45:49.631Z,100834.27
2019-04-27T07:47:12.524Z,100838.34
2019-04-27T07:48:18.870Z,100836.72
2019-04-27T07:49:23.929Z,100834.13
2019-04-27T07:50:29.065Z,100827.32
2019-04-27T07:51:34.573Z,100827.52
2019-04-27T07:52:40.505Z,100827.72
2019-04-27T07:53:45.601Z,100825.41
2019-04-27T07:54:50.551Z,100818.08
2019-04-27T07:55:55.880Z,100820.95
2019-04-27T07:57:00.984Z,100819.97
2019-04-27T07:58:06.295Z,100817.02
2019-04-27T07:59:11.351Z,100824.37
2019-04-27T08:00:19.094Z,100817.08
2019-04-27T08:01:24.102Z,100813.43
2019-04-27T08:02:29.433Z,100807.08
2019-04-27T08:03:35.091Z,100807.93
2019-04-27T08:04:40.157Z,100808.91
2019-04-27T08:05:45.352Z,100809.91
2019-04-27T08:06:50.514Z,100814.89
2019-04-27T08:07:55.611Z,100804.70
2019-04-27T08:09:00.640Z,100814.70
2019-04-27T08:10:05.707Z,100814.15
2019-04-27T08:11:11.316Z,100818.08
2019-04-27T08:12:16.655Z,100813.33
2019-04-27T08:13:21.730Z,100816.29
2019-04-27T08:14:28.521Z,100819.73
2019-04-27T08:15:33.743Z,100811.47
2019-04-27T08:16:38.947Z,100811.69
2019-04-27T08:17:44.005Z,100815.78
2019-04-27T08:18:51.693Z,100815.22
2019-04-27T08:19:56.455Z,100814.30
2019-04-27T08:21:01.687Z,100814.26
2019-04-27T08:22:06.673Z,100813.90
2019-04-27T08:23:11.915Z,100808.20
2019-04-27T08:24:16.946Z,100816.92
2019-04-27T08:25:23.626Z,100821.73
2019-04-27T08:26:47.883Z,100817.17
2019-04-27T08:28:00.299Z,100814.80
2019-04-27T08:29:32.849Z,100812.55
2019-04-27T08:30:43.199Z,100819.98
2019-04-27T08:31:52.214Z,100820.55
2019-04-27T08:32:58.907Z,100823.50
2019-04-27T08:34:03.980Z,100822.09
2019-04-27T08:35:09.604Z,100808.03
2019-04-27T08:36:14.608Z,100812.88
2019-04-27T08:37:19.667Z,100806.30
2019-04-27T08:38:24.599Z,100808.19
2019-04-27T08:39:29.753Z,100807.91
2019-04-27T08:40:35.268Z,100799.63
2019-04-27T08:41:40.353Z,100799.34
2019-04-27T08:42:45.476Z,100801.03
2019-04-27T08:43:50.581Z,100800.78
2019-04-27T08:44:55.562Z,100797.83
2019-04-27T08:46:00.811Z,100793.18
2019-04-27T08:47:05.952Z,100796.92
2019-04-27T08:48:11.096Z,100798.78
2019-04-27T08:49:16.447Z,100799.86
2019-04-27T08:50:21.536Z,100794.86
2019-04-27T08:51:26.624Z,100794.56
2019-04-27T08:52:31.671Z,100791.77
2019-04-27T08:53:36.713Z,100797.66
2019-04-27T08:54:41.706Z,100797.93
2019-04-27T08:55:46.691Z,100792.30
2019-04-27T08:56:51.722Z,100799.66
2019-04-27T08:57:58.564Z,100799.53
2019-04-27T08:59:03.863Z,100792.50
2019-04-27T09:00:10.241Z,100791.30
2019-04-27T09:01:15.640Z,100790.61
2019-04-27T09:02:20.583Z,100788.92
2019-04-27T09:03:26.084Z,100787.26
2019-04-27T09:04:31.193Z,100785.92
2019-04-27T09:05:36.267Z,100788.11
2019-04-27T09:06:42.914Z,100786.25
2019-04-27T09:07:59.720Z,100784.44
2019-04-27T09:09:10.965Z,100790.55
2019-04-27T09:10:32.512Z,100787.19
2019-04-27T09:11:44.582Z,100781.66
2019-04-27T09:13:26.879Z,100781.98
2019-04-27T09:14:42.837Z,100781.17
2019-04-27T09:16:06.904Z,100773.01
2019-04-27T09:17:24.924Z,100776.88
2019-04-27T09:18:32.606Z,100773.72
2019-04-27T09:19:46.760Z,100773.85
2019-04-27T09:20:54.758Z,100773.50
2019-04-27T09:22:12.473Z,100769.86
2019-04-27T09:23:10.538Z,100769.86
2019-04-27T09:24:15.582Z,100765.56
2019-04-27T09:25:20.638Z,100763.38
2019-04-27T09:26:25.739Z,100766.89
2019-04-27T09:27:30.875Z,100770.83
2019-04-27T09:28:36.073Z,100774.27
2019-04-27T09:29:41.380Z,100805.39
2019-04-27T09:30:46.455Z,100833.61
2019-04-27T09:31:51.620Z,100822.47
2019-04-27T09:32:57.083Z,100831.62
2019-04-27T09:34:02.133Z,100823.13
2019-04-27T09:35:07.750Z,100823.63
2019-04-27T09:36:13.045Z,100827.13
2019-04-27T09:37:18.018Z,100818.77
2019-04-27T09:38:23.073Z,100820.57
2019-04-27T09:39:28.203Z,100820.77
2019-04-27T09:40:33.221Z,100823.58
2019-04-27T09:41:38.502Z,100824.13
2019-04-27T09:42:43.418Z,100825.38
2019-04-27T09:43:48.461Z,100827.11
2019-04-27T09:44:53.578Z,100822.05
2019-04-27T09:45:58.532Z,100826.41
2019-04-27T09:47:03.585Z,100822.91
2019-04-27T09:48:08.681Z,100821.94
2019-04-27T09:49:13.625Z,100823.95
2019-04-27T09:50:20.235Z,100822.14
2019-04-27T09:51:25.687Z,100812.67
2019-04-27T09:52:30.800Z,100818.23
2019-04-27T09:53:36.523Z,100815.63
2019-04-27T09:54:41.507Z,100816.20
2019-04-27T09:55:46.868Z,100809.63
2019-04-27T09:56:51.813Z,100812.73
2019-04-27T09:57:57.033Z,100814.69
2019-04-27T09:59:01.966Z,100814.13
2019-04-27T10:00:09.494Z,100816.03
2019-04-27T10:01:16.373Z,100817.59
2019-04-27T10:02:21.138Z,100814.41
2019-04-27T10:03:26.624Z,100818.98
2019-04-27T10:04:31.773Z,100821.72
2019-04-27T10:05:37.139Z,100831.05
2019-04-27T10:06:42.340Z,100827.21
2019-04-27T10:07:47.751Z,100824.88
2019-04-27T10:08:52.759Z,100825.31
2019-04-27T10:09:57.838Z,100826.00
2019-04-27T10:11:02.883Z,100824.55
2019-04-27T10:12:07.907Z,100836.38
2019-04-27T10:13:13.075Z,100832.75
2019-04-27T10:14:18.182Z,100830.45
2019-04-27T10:15:23.207Z,100829.11
2019-04-27T10:16:28.123Z,100827.49
2019-04-27T10:17:33.127Z,100831.21
2019-04-27T10:18:38.108Z,100829.92
2019-04-27T10:19:43.341Z,100827.82
2019-04-27T10:20:59.129Z,100827.70
2019-04-27T10:21:55.032Z,100835.44
2019-04-27T10:23:00.075Z,100833.70
2019-04-27T10:24:06.614Z,100826.09
2019-04-27T10:25:23.030Z,100826.79
2019-04-27T10:26:28.011Z,100831.30
2019-04-27T10:27:33.041Z,100823.70
2019-04-27T10:28:38.243Z,100826.58
2019-04-27T10:29:43.266Z,100835.13
2019-04-27T10:30:48.416Z,100835.49
2019-04-27T10:31:53.384Z,100833.31
2019-04-27T10:32:58.522Z,100839.50
2019-04-27T10:34:03.457Z,100832.47
2019-04-27T10:35:08.670Z,100838.52
2019-04-27T10:36:13.725Z,100835.00
2019-04-27T10:37:18.644Z,100828.53
2019-04-27T10:38:25.664Z,100831.20
2019-04-27T10:39:30.520Z,100831.20
2019-04-27T10:40:35.496Z,100827.48
2019-04-27T10:41:40.611Z,100823.42
2019-04-27T10:42:45.928Z,100838.25
2019-04-27T10:43:51.003Z,100826.02
2019-04-27T10:44:56.151Z,100836.19
2019-04-27T10:46:01.108Z,100833.53
2019-04-27T10:47:06.147Z,100834.45
2019-04-27T10:48:11.236Z,100834.80
2019-04-27T10:49:16.227Z,100826.28
2019-04-27T10:50:21.732Z,100827.85
2019-04-27T10:51:26.799Z,100832.53
2019-04-27T10:52:31.870Z,100829.22
2019-04-27T10:53:38.919Z,100837.78
2019-04-27T10:54:43.687Z,100837.94
2019-04-27T10:55:48.690Z,100836.18
2019-04-27T10:56:53.620Z,100836.47
2019-04-27T10:57:58.528Z,100838.65
2019-04-27T10:59:06.093Z,100833.96
2019-04-27T11:00:13.434Z,100835.34
2019-04-27T11:01:18.602Z,100835.30
2019-04-27T11:02:23.643Z,100843.23
2019-04-27T11:03:46.608Z,100838.52
2019-04-27T11:04:57.619Z,100840.48
2019-04-27T11:06:18.940Z,100843.80
2019-04-27T11:07:26.531Z,100846.11
2019-04-27T11:08:31.497Z,100843.00
2019-04-27T11:09:36.457Z,100841.44
2019-04-27T11:10:41.816Z,100846.64
2019-04-27T11:11:46.828Z,100849.30
2019-04-27T11:12:51.865Z,100849.10
2019-04-27T11:14:00.737Z,100855.77
2019-04-27T11:15:05.874Z,100858.44
2019-04-27T11:16:11.462Z,100854.08
2019-04-27T11:17:16.562Z,100863.53
2019-04-27T11:18:21.805Z,100865.70
2019-04-27T11:19:26.955Z,100866.07
2019-04-27T11:20:31.997Z,100867.77
2019-04-27T11:21:36.989Z,100864.09
2019-04-27T11:22:42.049Z,100865.66
2019-04-27T11:23:46.991Z,100867.13
2019-04-27T11:24:51.990Z,100869.79
2019-04-27T11:25:57.239Z,100868.66
2019-04-27T11:27:02.222Z,100866.23
2019-04-27T11:28:07.255Z,100867.84
2019-04-27T11:29:12.200Z,100861.97
2019-04-27T11:30:17.787Z,100867.06
2019-04-27T11:31:22.795Z,100862.16
2019-04-27T11:32:27.928Z,100872.67
2019-04-27T11:33:32.913Z,100866.17
2019-04-27T11:34:55.914Z,100876.15
2019-04-27T11:36:18.687Z,100894.58
2019-04-27T11:37:28.754Z,100903.59
2019-04-27T11:38:34.034Z,100908.32
2019-04-27T11:39:39.098Z,100907.38
2019-04-27T11:40:44.116Z,100900.89
2019-04-27T11:41:49.140Z,100908.14
2019-04-27T11:42:56.965Z,100892.56
2019-04-27T11:44:00.961Z,100889.98
2019-04-27T11:45:06.676Z,100885.48
2019-04-27T11:46:11.711Z,100878.73
2019-04-27T11:47:17.152Z,100877.19
2019-04-27T11:48:22.208Z,100882.14
2019-04-27T11:49:27.220Z,100871.98
2019-04-27T11:50:32.678Z,100874.73
2019-04-27T11:51:37.794Z,100876.38
2019-04-27T11:52:42.796Z,100870.10
2019-04-27T11:53:47.751Z,100869.92
2019-04-27T11:54:53.294Z,100861.59
2019-04-27T11:55:58.306Z,100856.27
2019-04-27T11:57:03.306Z,100857.98
2019-04-27T11:58:08.337Z,100850.84
2019-04-27T11:59:13.408Z,100845.16
2019-04-27T12:00:21.018Z,100833.02
2019-04-27T12:01:27.055Z,100830.30
2019-04-27T12:02:32.794Z,100827.85
2019-04-27T12:03:38.145Z,100822.05
2019-04-27T12:04:43.130Z,100830.25
2019-04-27T12:05:48.223Z,100829.70
2019-04-27T12:06:53.155Z,100836.80
2019-04-27T12:07:58.132Z,100837.55
2019-04-27T12:09:04.386Z,100837.26
2019-04-27T12:10:09.928Z,100839.56
2019-04-27T12:11:16.015Z,100841.20
2019-04-27T12:12:21.848Z,100837.16
2019-04-27T12:13:26.931Z,100849.79
2019-04-27T12:14:32.256Z,100848.61
2019-04-27T12:15:37.328Z,100855.42
2019-04-27T12:16:42.298Z,100857.60
2019-04-27T12:17:47.225Z,100848.26
2019-04-27T12:18:52.349Z,100851.13
2019-04-27T12:19:57.484Z,100850.50
2019-04-27T12:21:02.539Z,100844.16
2019-04-27T12:22:07.959Z,100843.96
2019-04-27T12:23:13.005Z,100840.61
2019-04-27T12:24:18.056Z,100843.05
2019-04-27T12:25:23.152Z,100842.66
2019-04-27T12:26:36.541Z,100844.28
2019-04-27T12:28:03.296Z,100847.59
2019-04-27T12:29:10.240Z,100841.55
2019-04-27T12:30:26.191Z,100841.06
2019-04-27T12:31:36.814Z,100835.62
2019-04-27T12:32:41.906Z,100838.62
2019-04-27T12:33:46.841Z,100837.61
2019-04-27T12:34:52.123Z,100830.05
2019-04-27T12:35:57.155Z,100832.20
2019-04-27T12:37:02.177Z,100829.64
2019-04-27T12:38:07.216Z,100831.17
2019-04-27T12:39:13.341Z,100834.03
2019-04-27T12:40:18.446Z,100828.33
2019-04-27T12:41:23.721Z,100830.98
2019-04-27T12:42:28.814Z,100832.45
2019-04-27T12:43:35.554Z,100832.74
2019-04-27T12:44:42.486Z,100838.57
2019-04-27T12:45:47.550Z,100836.94
2019-04-27T12:46:52.452Z,100837.06
2019-04-27T12:47:57.414Z,100838.51
2019-04-27T12:49:02.518Z,100842.27
2019-04-27T12:50:09.890Z,100840.99
2019-04-27T12:51:15.107Z,100830.85
2019-04-27T12:52:21.345Z,100835.89